createdAt,value
2019-03-20T00:00:18.453Z,5.74
2019-03-20T00:00:58.872Z,5.75
2019-03-20T00:01:43.578Z,5.7
2019-03-20T00:02:19.646Z,5.73
2019-03-20T00:03:00.054Z,5.73
2019-03-20T00:03:40.457Z,5.8
2019-03-20T00:04:20.799Z,5.75
2019-03-20T00:05:01.183Z,5.75
2019-03-20T00:05:41.575Z,5.67
2019-03-20T00:06:22.023Z,5.69
2019-03-20T00:07:02.362Z,5.73
2019-03-20T00:07:42.741Z,5.69
2019-03-20T00:08:23.120Z,5.74
2019-03-20T00:09:03.514Z,5.66
2019-03-20T00:09:43.898Z,5.7
2019-03-20T00:10:24.356Z,5.75
2019-03-20T00:11:04.716Z,5.75
2019-03-20T00:11:45.092Z,5.87
2019-03-20T00:12:25.497Z,5.92
2019-03-20T00:13:05.864Z,5.88
2019-03-20T00:13:46.281Z,5.85
2019-03-20T00:14:26.610Z,5.85
2019-03-20T00:15:07.054Z,5.9
2019-03-20T00:15:47.423Z,5.75
2019-03-20T00:16:27.757Z,5.78
2019-03-20T00:17:08.157Z,5.92
2019-03-20T00:17:48.594Z,5.92
2019-03-20T00:18:28.969Z,5.93
2019-03-20T00:19:09.297Z,5.9
2019-03-20T00:19:49.726Z,5.92
2019-03-20T00:20:30.064Z,5.96
2019-03-20T00:21:10.518Z,5.83
2019-03-20T00:21:50.859Z,5.81
2019-03-20T00:22:31.254Z,5.9
2019-03-20T00:23:11.699Z,5.92
2019-03-20T00:23:52.102Z,5.84
2019-03-20T00:24:32.502Z,5.83
2019-03-20T00:25:12.912Z,5.83
2019-03-20T00:25:53.299Z,5.81
2019-03-20T00:26:33.687Z,5.69
2019-03-20T00:27:14.090Z,5.73
2019-03-20T00:27:54.537Z,5.78
2019-03-20T00:28:34.929Z,5.81
2019-03-20T00:29:15.278Z,5.78
2019-03-20T00:29:55.682Z,5.8
2019-03-20T00:30:36.081Z,5.77
2019-03-20T00:31:16.432Z,5.77
2019-03-20T00:31:56.823Z,5.73
2019-03-20T00:32:37.269Z,5.8
2019-03-20T00:33:17.615Z,5.8
2019-03-20T00:33:58.022Z,5.75
2019-03-20T00:34:38.440Z,5.81
2019-03-20T00:35:18.751Z,5.8
2019-03-20T00:35:59.237Z,5.9
2019-03-20T00:36:39.538Z,5.83
2019-03-20T00:37:19.895Z,5.9
2019-03-20T00:38:00.328Z,5.95
2019-03-20T00:38:40.669Z,5.87
2019-03-20T00:39:22.681Z,5.9
2019-03-20T00:43:43.319Z,5.98
2019-03-20T00:44:24.083Z,5.99
2019-03-20T00:45:04.470Z,5.85
2019-03-20T00:45:44.869Z,5.84
2019-03-20T00:46:25.317Z,5.83
2019-03-20T00:47:05.733Z,5.78
2019-03-20T00:47:46.086Z,5.74
2019-03-20T00:48:26.495Z,5.75
2019-03-20T00:49:06.917Z,5.69
2019-03-20T00:49:47.309Z,5.63
2019-03-20T00:50:27.761Z,5.62
2019-03-20T00:51:08.171Z,5.59
2019-03-20T00:51:48.614Z,5.55
2019-03-20T00:52:28.935Z,5.58
2019-03-20T00:53:09.361Z,5.58
2019-03-20T00:53:49.738Z,5.48
2019-03-20T00:54:30.153Z,5.47
2019-03-20T00:55:10.562Z,5.52
2019-03-20T00:55:50.963Z,5.58
2019-03-20T00:56:31.370Z,5.51
2019-03-20T00:57:11.769Z,5.42
2019-03-20T00:57:52.191Z,5.58
2019-03-20T00:58:32.591Z,5.56
2019-03-20T00:59:13.012Z,5.59
2019-03-20T00:59:53.432Z,5.62
2019-03-20T01:00:33.818Z,5.59
2019-03-20T01:01:14.228Z,5.69
2019-03-20T01:01:54.695Z,5.74
2019-03-20T01:02:35.061Z,5.7
2019-03-20T01:03:15.459Z,5.67
2019-03-20T01:03:55.842Z,5.75
2019-03-20T01:04:36.214Z,5.65
2019-03-20T01:05:16.572Z,5.69
2019-03-20T01:05:56.996Z,5.69
2019-03-20T01:06:37.367Z,5.67
2019-03-20T01:07:17.748Z,5.65
2019-03-20T01:07:58.160Z,5.69
2019-03-20T01:08:38.551Z,5.7
2019-03-20T01:09:18.911Z,5.66
2019-03-20T01:09:59.332Z,5.74
2019-03-20T01:10:39.743Z,5.66
2019-03-20T01:11:20.106Z,5.7
2019-03-20T01:12:00.480Z,5.83
2019-03-20T01:12:41.836Z,5.92
2019-03-20T01:13:22.216Z,5.87
2019-03-20T01:14:02.640Z,5.88
2019-03-20T01:19:40.224Z,5.83
2019-03-20T01:20:27.890Z,5.78
2019-03-20T01:21:08.901Z,5.8
2019-03-20T01:21:49.274Z,5.73
2019-03-20T01:22:29.775Z,5.66
2019-03-20T01:23:10.131Z,5.63
2019-03-20T01:23:50.510Z,5.63
2019-03-20T01:24:30.910Z,5.59
2019-03-20T01:25:11.377Z,5.62
2019-03-20T01:25:51.751Z,5.56
2019-03-20T01:26:33.095Z,5.6
2019-03-20T01:27:13.527Z,5.55
2019-03-20T01:27:53.861Z,5.48
2019-03-20T01:28:34.222Z,5.51
2019-03-20T01:29:14.646Z,5.51
2019-03-20T01:29:54.993Z,5.4
2019-03-20T01:30:35.478Z,5.59
2019-03-20T01:31:15.734Z,5.59
2019-03-20T01:31:56.242Z,5.6
2019-03-20T01:32:36.614Z,5.6
2019-03-20T01:33:17.031Z,5.63
2019-03-20T01:37:22.042Z,5.49
2019-03-20T01:38:11.682Z,5.52
2019-03-20T01:40:18.674Z,5.56
2019-03-20T01:41:07.890Z,5.59
2019-03-20T01:41:56.760Z,5.58
2019-03-20T01:42:49.241Z,5.45
2019-03-20T01:46:00.274Z,5.4
2019-03-20T01:46:53.304Z,5.33
2019-03-20T01:48:49.687Z,5.23
2019-03-20T01:49:45.186Z,5.29
2019-03-20T01:51:21.824Z,5.26
2019-03-20T01:52:51.861Z,5.19
2019-03-20T01:53:32.274Z,5.24
2019-03-20T01:54:12.636Z,5.19
2019-03-20T01:54:53.039Z,5.17
2019-03-20T01:55:33.457Z,5.32
2019-03-20T01:56:13.813Z,5.17
2019-03-20T01:56:54.251Z,5.27
2019-03-20T01:57:34.564Z,5.24
2019-03-20T01:58:14.992Z,5.2
2019-03-20T01:58:55.372Z,5.17
2019-03-20T01:59:35.825Z,5.29
2019-03-20T02:00:16.179Z,5.27
2019-03-20T02:00:56.545Z,5.35
2019-03-20T02:01:36.943Z,5.23
2019-03-20T02:02:17.346Z,5.23
2019-03-20T02:02:57.754Z,5.19
2019-03-20T02:03:38.175Z,5.14
2019-03-20T02:04:18.567Z,5.2
2019-03-20T02:04:58.963Z,5.19
2019-03-20T02:05:39.379Z,5.14
2019-03-20T02:06:19.735Z,5.15
2019-03-20T02:07:00.169Z,5.14
2019-03-20T02:07:40.544Z,5.17
2019-03-20T02:08:20.975Z,5.32
2019-03-20T02:09:01.272Z,5.3
2019-03-20T02:09:41.702Z,5.26
2019-03-20T02:10:22.066Z,5.26
2019-03-20T02:11:02.485Z,5.4
2019-03-20T02:11:42.887Z,5.37
2019-03-20T02:12:23.254Z,5.44
2019-03-20T02:13:03.708Z,5.48
2019-03-20T02:13:44.085Z,5.48
2019-03-20T02:14:24.476Z,5.45
2019-03-20T02:15:04.868Z,5.47
2019-03-20T02:15:45.269Z,5.37
2019-03-20T02:16:25.666Z,5.44
2019-03-20T02:17:06.101Z,5.52
2019-03-20T02:17:46.486Z,5.47
2019-03-20T02:18:26.875Z,5.55
2019-03-20T02:19:07.264Z,5.62
2019-03-20T02:19:47.658Z,5.65
2019-03-20T02:20:28.045Z,5.59
2019-03-20T02:21:08.435Z,5.62
2019-03-20T02:21:48.841Z,5.51
2019-03-20T02:22:29.237Z,5.48
2019-03-20T02:23:09.632Z,5.41
2019-03-20T02:23:49.985Z,5.35
2019-03-20T02:24:30.411Z,5.4
2019-03-20T02:25:10.767Z,5.35
2019-03-20T02:25:51.176Z,5.41
2019-03-20T02:26:31.619Z,5.33
2019-03-20T02:27:12.003Z,5.29
2019-03-20T02:27:52.413Z,5.29
2019-03-20T02:28:32.775Z,5.2
2019-03-20T02:29:13.178Z,5.2
2019-03-20T02:29:53.553Z,5.17
2019-03-20T02:30:33.983Z,5.14
2019-03-20T02:31:14.363Z,5.26
2019-03-20T02:31:54.729Z,5.26
2019-03-20T02:32:35.102Z,5.27
2019-03-20T02:33:15.499Z,5.24
2019-03-20T02:33:55.825Z,5.32
2019-03-20T02:34:36.235Z,5.33
2019-03-20T02:35:16.584Z,5.27
2019-03-20T02:35:56.952Z,5.33
2019-03-20T02:36:37.361Z,5.3
2019-03-20T02:37:17.772Z,5.23
2019-03-20T02:37:58.157Z,5.24
2019-03-20T02:38:38.509Z,5.26
2019-03-20T02:39:18.879Z,5.2
2019-03-20T02:39:59.373Z,5.14
2019-03-20T02:40:39.678Z,5.24
2019-03-20T02:41:20.089Z,5.29
2019-03-20T02:42:00.457Z,5.24
2019-03-20T02:42:40.891Z,5.24
2019-03-20T02:43:21.217Z,5.29
2019-03-20T02:44:01.638Z,5.2
2019-03-20T02:44:41.992Z,5.26
2019-03-20T02:45:22.376Z,5.32
2019-03-20T02:46:02.747Z,5.3
2019-03-20T02:46:43.183Z,5.32
2019-03-20T02:47:23.613Z,5.29
2019-03-20T02:48:03.986Z,5.23
2019-03-20T02:48:44.366Z,5.32
2019-03-20T02:49:24.759Z,5.41
2019-03-20T02:50:05.120Z,5.42
2019-03-20T02:50:45.529Z,5.33
2019-03-20T02:51:25.904Z,5.32
2019-03-20T02:52:06.248Z,5.23
2019-03-20T02:52:46.649Z,5.24
2019-03-20T02:53:27.060Z,5.29
2019-03-20T02:54:07.465Z,5.17
2019-03-20T02:54:47.820Z,5.12
2019-03-20T02:55:28.280Z,5.24
2019-03-20T02:56:08.640Z,5.05
2019-03-20T02:56:49.044Z,5.12
2019-03-20T02:57:29.469Z,5.09
2019-03-20T02:58:09.852Z,5.14
2019-03-20T02:58:50.267Z,5.08
2019-03-20T02:59:30.694Z,5.11
2019-03-20T03:00:11.042Z,5.05
2019-03-20T03:00:51.517Z,5.06
2019-03-20T03:01:31.937Z,5.02
2019-03-20T03:02:12.291Z,5.04
2019-03-20T03:02:52.708Z,4.9
2019-03-20T03:03:33.131Z,4.97
2019-03-20T03:04:13.527Z,5.02
2019-03-20T03:04:53.949Z,5.06
2019-03-20T03:05:34.281Z,5.02
2019-03-20T03:06:14.711Z,4.97
2019-03-20T03:06:55.103Z,4.91
2019-03-20T03:07:35.516Z,4.88
2019-03-20T03:08:15.886Z,4.91
2019-03-20T03:08:56.282Z,4.84
2019-03-20T03:09:36.698Z,4.9
2019-03-20T03:10:17.035Z,4.9
2019-03-20T03:10:57.457Z,4.8
2019-03-20T03:11:37.848Z,4.77
2019-03-20T03:13:35.897Z,4.79
2019-03-20T03:14:21.398Z,4.79
2019-03-20T03:15:00.549Z,4.69
2019-03-20T03:15:40.831Z,4.75
2019-03-20T03:16:21.253Z,4.79
2019-03-20T03:17:03.807Z,4.74
2019-03-20T03:17:44.262Z,4.79
2019-03-20T03:18:24.816Z,4.79
2019-03-20T03:19:05.170Z,4.8
2019-03-20T03:19:45.601Z,4.75
2019-03-20T03:20:25.972Z,4.79
2019-03-20T03:21:06.402Z,4.75
2019-03-20T03:21:46.760Z,4.91
2019-03-20T03:22:27.166Z,4.84
2019-03-20T03:23:07.515Z,4.84
2019-03-20T03:23:47.987Z,4.8
2019-03-20T03:24:28.337Z,4.86
2019-03-20T03:25:08.717Z,4.97
2019-03-20T03:25:50.239Z,5.01
2019-03-20T03:26:29.506Z,5.06
2019-03-20T03:27:09.896Z,5.01
2019-03-20T03:27:51.432Z,5.06
2019-03-20T03:28:33.175Z,5.17
2019-03-20T03:29:14.112Z,5.17
2019-03-20T03:29:55.067Z,5.2
2019-03-20T03:30:36.071Z,5.08
2019-03-20T03:31:16.818Z,5.2
2019-03-20T03:31:58.118Z,5.17
2019-03-20T03:32:39.149Z,4.99
2019-03-20T03:33:19.959Z,5.19
2019-03-20T03:34:01.117Z,5.17
2019-03-20T03:34:42.277Z,5.22
2019-03-20T03:35:23.254Z,5.23
2019-03-20T03:36:04.309Z,5.23
2019-03-20T03:36:47.266Z,5.15
2019-03-20T03:37:28.170Z,5.17
2019-03-20T03:38:10.386Z,5.09
2019-03-20T03:38:50.789Z,5.14
2019-03-20T03:39:31.204Z,5.15
2019-03-20T03:40:11.576Z,5.2
2019-03-20T03:40:52.028Z,5.22
2019-03-20T03:41:32.378Z,5.27
2019-03-20T03:42:12.806Z,5.33
2019-03-20T03:42:53.181Z,5.37
2019-03-20T03:43:33.564Z,5.44
2019-03-20T03:44:13.905Z,5.49
2019-03-20T03:44:54.360Z,5.56
2019-03-20T03:45:34.707Z,5.58
2019-03-20T03:46:15.107Z,5.55
2019-03-20T03:46:55.542Z,5.59
2019-03-20T03:47:35.914Z,5.51
2019-03-20T03:48:16.323Z,5.48
2019-03-20T03:48:56.709Z,5.44
2019-03-20T03:49:37.084Z,5.45
2019-03-20T03:50:17.532Z,5.37
2019-03-20T03:50:57.867Z,5.44
2019-03-20T03:51:38.284Z,5.35
2019-03-20T03:52:18.640Z,5.4
2019-03-20T03:52:59.057Z,5.33
2019-03-20T03:53:39.897Z,5.41
2019-03-20T03:54:20.447Z,5.37
2019-03-20T03:55:01.207Z,5.42
2019-03-20T03:55:42.195Z,5.44
2019-03-20T03:56:23.343Z,5.35
2019-03-20T03:57:04.022Z,5.44
2019-03-20T03:57:44.538Z,5.38
2019-03-20T03:58:24.944Z,5.47
2019-03-20T03:59:05.292Z,5.4
2019-03-20T03:59:45.720Z,5.35
2019-03-20T04:00:26.087Z,5.37
2019-03-20T04:01:06.488Z,5.33
2019-03-20T04:01:47.058Z,5.27
2019-03-20T04:02:27.398Z,5.3
2019-03-20T04:03:07.786Z,5.26
2019-03-20T04:03:48.238Z,5.3
2019-03-20T04:04:28.671Z,5.4
2019-03-20T04:05:09.144Z,5.41
2019-03-20T04:05:49.577Z,5.38
2019-03-20T04:06:35.155Z,5.35
2019-03-20T04:07:10.413Z,5.37
2019-03-20T04:07:50.851Z,5.41
2019-03-20T04:08:31.195Z,5.38
2019-03-20T04:09:11.671Z,5.47
2019-03-20T04:09:52.055Z,5.52
2019-03-20T04:10:32.452Z,5.58
2019-03-20T04:15:45.400Z,5.67
2019-03-20T04:16:25.247Z,5.6
2019-03-20T04:17:05.689Z,5.7
2019-03-20T04:17:46.129Z,5.7
2019-03-20T04:18:26.485Z,5.75
2019-03-20T04:19:06.899Z,5.7
2019-03-20T04:19:47.266Z,5.69
2019-03-20T04:20:27.666Z,5.67
2019-03-20T04:21:08.053Z,5.65
2019-03-20T04:21:48.479Z,5.73
2019-03-20T04:22:28.874Z,5.6
2019-03-20T04:23:09.284Z,5.73
2019-03-20T04:23:49.686Z,5.67
2019-03-20T04:24:30.061Z,5.62
2019-03-20T04:25:10.510Z,5.6
2019-03-20T04:25:50.899Z,5.73
2019-03-20T04:26:31.349Z,5.66
2019-03-20T04:27:11.731Z,5.62
2019-03-20T05:08:11.161Z,4.06
2019-03-20T05:08:55.955Z,3.99
2019-03-20T05:09:35.917Z,3.9
2019-03-20T05:10:16.354Z,3.99
2019-03-20T05:10:56.733Z,3.93
2019-03-20T05:11:37.628Z,4.02
2019-03-20T05:12:18.043Z,3.92
2019-03-20T05:12:58.422Z,3.96
2019-03-20T05:13:38.829Z,3.81
2019-03-20T05:14:19.215Z,3.88
2019-03-20T05:14:59.629Z,3.82
2019-03-20T05:15:40.052Z,3.88
2019-03-20T05:16:20.513Z,3.77
2019-03-20T05:17:00.986Z,3.84
2019-03-20T05:17:41.362Z,3.89
2019-03-20T05:18:21.769Z,3.82
2019-03-20T05:19:02.190Z,3.84
2019-03-20T05:19:42.565Z,3.95
2019-03-20T05:20:22.990Z,4
2019-03-20T05:21:03.389Z,4.14
2019-03-20T05:21:43.811Z,4.14
2019-03-20T05:22:24.235Z,4.16
2019-03-20T05:23:04.757Z,4.14
2019-03-20T05:23:45.166Z,4.31
2019-03-20T05:24:25.531Z,4.34
2019-03-20T05:25:05.984Z,4.28
2019-03-20T05:25:46.332Z,4.46
2019-03-20T05:26:26.818Z,4.5
2019-03-20T05:27:07.213Z,4.51
2019-03-20T05:27:47.634Z,4.51
2019-03-20T05:28:28.049Z,4.65
2019-03-20T05:29:08.446Z,4.64
2019-03-20T05:29:48.825Z,4.61
2019-03-20T05:30:30.100Z,4.61
2019-03-20T05:31:10.460Z,4.61
2019-03-20T05:31:50.878Z,4.67
2019-03-20T05:32:31.285Z,4.86
2019-03-20T05:33:11.677Z,4.88
2019-03-20T05:33:52.071Z,4.99
2019-03-20T05:34:32.454Z,4.9
2019-03-20T05:35:12.944Z,5.11
2019-03-20T05:35:53.273Z,5.08
2019-03-20T05:36:33.711Z,5.2
2019-03-20T05:37:14.113Z,5.14
2019-03-20T05:37:54.529Z,5.15
2019-03-20T05:38:34.928Z,5.19
2019-03-20T05:39:15.896Z,5.22
2019-03-20T05:39:58.435Z,5.17
2019-03-20T05:40:38.883Z,5.24
2019-03-20T05:41:19.234Z,5.33
2019-03-20T05:41:59.650Z,5.3
2019-03-20T05:42:40.096Z,5.37
2019-03-20T05:43:20.481Z,5.47
2019-03-20T05:44:00.893Z,5.62
2019-03-20T05:44:41.274Z,5.62
2019-03-20T05:45:25.338Z,5.7
2019-03-20T05:46:05.789Z,5.73
2019-03-20T05:46:46.189Z,5.69
2019-03-20T05:47:26.605Z,5.69
2019-03-20T05:48:06.970Z,5.65
2019-03-20T05:52:32.657Z,6.08
2019-03-20T05:53:13.125Z,6.16
2019-03-20T05:53:53.528Z,6.16
2019-03-20T05:54:33.974Z,6.13
2019-03-20T05:55:14.317Z,6.25
2019-03-20T05:55:54.778Z,6.3
2019-03-20T05:56:35.172Z,6.32
2019-03-20T05:57:15.649Z,6.28
2019-03-20T05:57:55.998Z,6.28
2019-03-20T05:58:37.073Z,6.32
2019-03-20T05:59:17.461Z,6.46
2019-03-20T05:59:57.900Z,6.58
2019-03-20T06:00:38.333Z,6.57
2019-03-20T06:01:18.849Z,6.75
2019-03-20T06:01:59.259Z,6.76
2019-03-20T06:02:39.655Z,6.87
2019-03-20T06:03:20.058Z,6.96
2019-03-20T06:04:00.447Z,7.11
2019-03-20T06:04:40.810Z,7.19
2019-03-20T06:05:21.217Z,7.27
2019-03-20T06:06:01.604Z,7.33
2019-03-20T06:06:42.027Z,7.45
2019-03-20T06:07:22.435Z,7.58
2019-03-20T06:08:02.789Z,7.63
2019-03-20T06:08:43.196Z,7.71
2019-03-20T06:09:23.593Z,7.76
2019-03-20T06:10:04.024Z,7.82
2019-03-20T06:10:44.381Z,8.09
2019-03-20T06:11:24.825Z,8.18
2019-03-20T06:12:05.310Z,8.29
2019-03-20T06:12:45.641Z,8.34
2019-03-20T06:13:26.211Z,8.39
2019-03-20T06:14:06.653Z,8.4
2019-03-20T06:14:47.039Z,8.47
2019-03-20T06:18:52.420Z,8.86
2019-03-20T06:19:42.077Z,8.97
2019-03-20T06:20:22.540Z,9.06
2019-03-20T06:21:02.955Z,9.19
2019-03-20T06:21:43.427Z,9.2
2019-03-20T06:22:23.810Z,9.34
2019-03-20T06:23:04.197Z,9.4
2019-03-20T06:23:44.700Z,9.52
2019-03-20T06:24:25.062Z,9.63
2019-03-20T06:25:05.425Z,9.63
2019-03-20T06:25:45.809Z,9.63
2019-03-20T06:26:26.245Z,9.62
2019-03-20T06:27:06.598Z,9.58
2019-03-20T06:27:47.033Z,9.34
2019-03-20T06:28:27.461Z,9.27
2019-03-20T06:29:07.853Z,9.35
2019-03-20T06:29:48.272Z,9.32
2019-03-20T06:30:28.666Z,9.2
2019-03-20T06:31:09.120Z,9.04
2019-03-20T06:31:49.451Z,8.97
2019-03-20T06:32:29.935Z,8.89
2019-03-20T06:33:10.313Z,8.8
2019-03-20T06:33:50.739Z,8.63
2019-03-20T06:34:31.128Z,8.65
2019-03-20T06:35:11.497Z,8.5
2019-03-20T06:35:52.078Z,8.49
2019-03-20T06:36:32.453Z,8.5
2019-03-20T06:37:12.846Z,8.47
2019-03-20T06:50:40.091Z,8
2019-03-20T06:51:19.840Z,8.07
2019-03-20T06:52:00.393Z,7.91
2019-03-20T06:52:41.269Z,7.91
2019-03-20T06:53:21.727Z,7.95
2019-03-20T06:54:02.461Z,7.94
2019-03-20T06:54:42.782Z,7.92
2019-03-20T06:55:23.757Z,7.79
2019-03-20T06:56:04.599Z,7.85
2019-03-20T06:57:45.072Z,7.81
2019-03-20T06:58:28.652Z,7.84
2019-03-20T06:59:09.813Z,7.81
2019-03-20T06:59:50.535Z,7.84
2019-03-20T07:00:30.959Z,7.86
2019-03-20T07:01:14.991Z,7.79
2019-03-20T07:01:55.435Z,7.82
2019-03-20T07:02:35.921Z,7.79
2019-03-20T07:03:16.440Z,7.79
2019-03-20T07:03:57.748Z,7.85
2019-03-20T07:04:38.382Z,7.77
2019-03-20T07:05:18.749Z,7.73
2019-03-20T07:05:59.141Z,7.82
2019-03-20T07:06:39.611Z,7.91
2019-03-20T07:07:20.236Z,7.89
2019-03-20T07:08:01.190Z,7.94
2019-03-20T07:08:41.714Z,8.1
2019-03-20T07:09:22.521Z,8.06
2019-03-20T07:10:03.145Z,8.1
2019-03-20T07:10:43.558Z,7.95
2019-03-20T07:11:24.888Z,7.99
2019-03-20T07:12:05.483Z,7.82
2019-03-20T07:12:45.911Z,7.84
2019-03-20T07:13:27.306Z,7.82
2019-03-20T07:14:07.008Z,7.71
2019-03-20T07:14:47.597Z,7.82
2019-03-20T07:15:27.964Z,7.77
2019-03-20T07:16:08.521Z,7.79
2019-03-20T07:16:49.083Z,7.77
2019-03-20T07:17:29.728Z,7.92
2019-03-20T07:18:10.159Z,7.94
2019-03-20T07:18:52.149Z,7.92
2019-03-20T07:20:56.960Z,8.06
2019-03-20T07:21:53.183Z,8.17
2019-03-20T07:26:47.702Z,8.27
2019-03-20T07:27:29.595Z,8.5
2019-03-20T07:28:09.990Z,8.46
2019-03-20T07:28:50.391Z,8.57
2019-03-20T07:29:32.498Z,8.54
2019-03-20T07:30:13.004Z,8.55
2019-03-20T07:30:53.608Z,8.54
2019-03-20T07:31:39.964Z,8.46
2019-03-20T07:32:27.118Z,8.43
2019-03-20T07:33:08.558Z,8.39
2019-03-20T07:33:49.051Z,8.45
2019-03-20T07:34:29.473Z,8.39
2019-03-20T07:35:10.395Z,8.32
2019-03-20T07:35:50.823Z,8.32
2019-03-20T07:36:31.254Z,8.25
2019-03-20T07:37:11.629Z,8.37
2019-03-20T07:37:56.061Z,8.37
2019-03-20T07:38:32.515Z,8.28
2019-03-20T07:39:12.879Z,8.32
2019-03-20T07:39:53.311Z,8.37
2019-03-20T07:40:33.786Z,8.29
2019-03-20T07:41:14.268Z,8.27
2019-03-20T07:41:54.721Z,8.28
2019-03-20T07:42:36.722Z,8.39
2019-03-20T07:43:18.954Z,8.42
2019-03-20T07:43:59.297Z,8.36
2019-03-20T07:44:40.670Z,8.45
2019-03-20T07:45:21.106Z,8.39
2019-03-20T07:46:01.524Z,8.49
2019-03-20T07:46:41.999Z,8.47
2019-03-20T07:47:22.632Z,8.5
2019-03-20T07:48:03.044Z,8.55
2019-03-20T07:48:45.511Z,8.6
2019-03-20T07:49:26.008Z,8.54
2019-03-20T07:50:06.581Z,8.55
2019-03-20T07:50:47.192Z,8.58
2019-03-20T07:51:27.720Z,8.6
2019-03-20T07:52:08.184Z,8.64
2019-03-20T07:52:48.905Z,8.65
2019-03-20T07:53:29.470Z,8.58
2019-03-20T07:54:10.231Z,8.5
2019-03-20T07:54:50.853Z,8.54
2019-03-20T07:55:31.522Z,8.47
2019-03-20T07:56:11.965Z,8.45
2019-03-20T07:56:52.411Z,8.37
2019-03-20T07:57:33.079Z,8.37
2019-03-20T07:58:13.999Z,8.36
2019-03-20T07:58:54.474Z,8.49
2019-03-20T07:59:34.935Z,8.6
2019-03-20T08:00:15.543Z,8.6
2019-03-20T08:00:56.059Z,8.65
2019-03-20T08:01:36.715Z,8.65
2019-03-20T08:02:17.116Z,8.64
2019-03-20T08:02:57.530Z,8.64
2019-03-20T08:03:39.714Z,8.65
2019-03-20T08:04:20.169Z,8.76
2019-03-20T08:05:00.511Z,8.75
2019-03-20T08:05:40.981Z,8.75
2019-03-20T08:06:21.365Z,8.86
2019-03-20T08:07:02.920Z,8.93
2019-03-20T08:07:43.533Z,8.96
2019-03-20T08:08:25.595Z,9.1
2019-03-20T08:09:10.744Z,9.17
2019-03-20T08:09:51.332Z,9.16
2019-03-20T08:10:31.988Z,9.22
2019-03-20T08:11:12.298Z,9.12
2019-03-20T08:12:01.855Z,9.22
2019-03-20T08:12:43.513Z,9.32
2019-03-20T08:13:23.688Z,9.31
2019-03-20T08:14:06.082Z,9.32
2019-03-20T08:14:46.496Z,9.34
2019-03-20T08:15:26.889Z,9.37
2019-03-20T08:16:07.378Z,9.35
2019-03-20T08:16:49.580Z,9.35
2019-03-20T08:17:31.127Z,9.42
2019-03-20T08:18:11.555Z,9.44
2019-03-20T08:18:53.803Z,9.38
2019-03-20T08:19:34.210Z,9.5
2019-03-20T08:20:16.456Z,9.44
2019-03-20T08:20:56.963Z,9.52
2019-03-20T08:21:37.989Z,9.52
2019-03-20T08:22:18.316Z,9.56
2019-03-20T08:22:58.800Z,9.52
2019-03-20T08:23:39.236Z,9.59
2019-03-20T08:24:19.606Z,9.68
2019-03-20T08:25:18.140Z,9.67
2019-03-20T08:25:58.570Z,9.7
2019-03-20T08:26:38.989Z,9.7
2019-03-20T08:27:19.446Z,9.68
2019-03-20T08:28:00.780Z,9.65
2019-03-20T08:28:41.170Z,9.62
2019-03-20T08:29:21.590Z,9.75
2019-03-20T08:30:02.041Z,9.77
2019-03-20T08:30:42.501Z,9.85
2019-03-20T08:31:22.862Z,9.99
2019-03-20T08:32:12.069Z,10.04
2019-03-20T08:33:01.563Z,10.14
2019-03-20T08:33:41.991Z,10.1
2019-03-20T08:34:22.405Z,10.22
2019-03-20T08:35:04.845Z,10.28
2019-03-20T08:35:47.226Z,10.25
2019-03-20T08:36:29.700Z,10.2
2019-03-20T08:37:10.139Z,10.29
2019-03-20T08:37:50.536Z,10.18
2019-03-20T08:38:30.966Z,10.29
2019-03-20T08:39:12.914Z,10.29
2019-03-20T08:39:54.190Z,10.34
2019-03-20T08:40:34.631Z,10.28
2019-03-20T08:41:15.015Z,10.31
2019-03-20T08:41:55.546Z,10.26
2019-03-20T08:42:37.854Z,10.34
2019-03-20T08:43:18.440Z,10.24
2019-03-20T08:44:01.463Z,10.25
2019-03-20T08:44:45.192Z,10.32
2019-03-20T08:45:25.828Z,10.36
2019-03-20T08:46:10.373Z,10.29
2019-03-20T08:46:50.704Z,10.38
2019-03-20T08:47:31.236Z,10.35
2019-03-20T08:48:12.267Z,10.29
2019-03-20T08:48:52.780Z,10.42
2019-03-20T08:49:36.193Z,10.39
2019-03-20T08:50:25.247Z,10.42
2019-03-20T08:51:05.720Z,10.43
2019-03-20T08:51:48.255Z,10.55
2019-03-20T08:52:28.660Z,10.46
2019-03-20T08:53:26.833Z,10.6
2019-03-20T08:54:07.291Z,10.6
2019-03-20T08:54:48.586Z,10.68
2019-03-20T08:55:29.918Z,10.65
2019-03-20T08:56:11.841Z,10.78
2019-03-20T08:56:54.157Z,10.91
2019-03-20T08:57:34.643Z,10.9
2019-03-20T08:58:15.208Z,11.06
2019-03-20T08:58:56.568Z,11.12
2019-03-20T08:59:36.983Z,11.12
2019-03-20T09:00:17.374Z,11.19
2019-03-20T09:01:03.640Z,11.16
2019-03-20T09:01:44.030Z,11.11
2019-03-20T09:02:24.501Z,11.2
2019-03-20T09:03:04.891Z,11.19
2019-03-20T09:03:45.517Z,11.23
2019-03-20T09:04:26.088Z,11.38
2019-03-20T09:05:06.685Z,11.33
2019-03-20T09:05:47.489Z,11.45
2019-03-20T09:06:28.014Z,11.44
2019-03-20T09:07:08.427Z,11.51
2019-03-20T09:07:48.895Z,11.54
2019-03-20T09:08:31.195Z,11.6
2019-03-20T09:09:11.555Z,11.69
2019-03-20T09:09:51.946Z,11.67
2019-03-20T09:10:32.407Z,11.72
2019-03-20T09:11:12.860Z,11.75
2019-03-20T09:11:54.061Z,11.85
2019-03-20T09:12:33.775Z,11.94
2019-03-20T09:13:30.264Z,12.01
2019-03-20T09:14:10.738Z,11.97
2019-03-20T09:14:55.092Z,12
2019-03-20T09:15:35.505Z,11.97
2019-03-20T09:16:15.928Z,12.01
2019-03-20T09:16:56.338Z,11.96
2019-03-20T09:17:36.758Z,11.94
2019-03-20T09:18:17.318Z,11.93
2019-03-20T09:18:57.808Z,11.98
2019-03-20T09:19:38.199Z,12.01
2019-03-20T09:20:18.629Z,12.04
2019-03-20T09:20:59.137Z,12.15
2019-03-20T09:21:40.112Z,12.12
2019-03-20T09:22:20.552Z,12.12
2019-03-20T09:23:00.953Z,12.05
2019-03-20T09:23:41.459Z,12.16
2019-03-20T09:24:22.754Z,12.12
2019-03-20T09:25:04.777Z,12.19
2019-03-20T09:25:45.263Z,12.26
2019-03-20T09:26:25.721Z,12.38
2019-03-20T09:27:06.162Z,12.38
2019-03-20T09:27:47.481Z,12.4
2019-03-20T09:28:28.029Z,12.43
2019-03-20T09:29:18.111Z,12.4
2019-03-20T09:29:49.517Z,12.38
2019-03-20T09:30:41.594Z,12.48
2019-03-20T09:31:23.613Z,12.46
2019-03-20T09:32:04.051Z,12.37
2019-03-20T09:32:44.488Z,12.48
2019-03-20T09:33:26.675Z,12.43
2019-03-20T09:34:07.165Z,12.38
2019-03-20T09:34:47.549Z,12.44
2019-03-20T09:37:52.026Z,12.61
2019-03-20T09:39:24.419Z,12.76
2019-03-20T09:40:04.764Z,12.77
2019-03-20T09:40:45.214Z,12.89
2019-03-20T09:41:25.639Z,12.99
2019-03-20T09:42:06.035Z,13.07
2019-03-20T09:42:46.585Z,13.17
2019-03-20T09:43:27.287Z,13.17
2019-03-20T09:44:07.704Z,13.21
2019-03-20T09:44:49.531Z,13.35
2019-03-20T09:45:30.075Z,13.46
2019-03-20T09:46:12.966Z,13.46
2019-03-20T09:46:54.231Z,13.54
2019-03-20T09:47:33.997Z,13.68
2019-03-20T09:48:14.475Z,13.69
2019-03-20T09:48:54.915Z,13.68
2019-03-20T09:49:37.026Z,13.72
2019-03-20T09:50:17.415Z,13.75
2019-03-20T09:50:57.886Z,13.75
2019-03-20T09:51:38.387Z,13.8
2019-03-20T09:52:18.751Z,13.88
2019-03-20T09:53:01.021Z,13.87
2019-03-20T09:53:41.413Z,13.86
2019-03-20T09:54:21.865Z,13.98
2019-03-20T09:55:03.802Z,13.94
2019-03-20T09:55:46.469Z,13.86
2019-03-20T09:56:28.968Z,13.76
2019-03-20T09:57:08.678Z,13.86
2019-03-20T09:57:49.139Z,13.86
2019-03-20T09:58:29.544Z,13.9
2019-03-20T09:59:10.708Z,13.96
2019-03-20T09:59:51.114Z,14.01
2019-03-20T10:00:31.613Z,14.12
2019-03-20T10:01:12.013Z,14.2
2019-03-20T10:01:52.433Z,14.31
2019-03-20T10:02:32.856Z,14.35
2019-03-20T10:03:32.197Z,14.39
2019-03-20T10:04:12.643Z,14.53
2019-03-20T10:04:53.431Z,14.53
2019-03-20T10:05:35.636Z,14.66
2019-03-20T10:06:16.988Z,14.72
2019-03-20T10:06:59.159Z,14.83
2019-03-20T10:07:40.028Z,14.83
2019-03-20T10:09:43.887Z,15
2019-03-20T10:10:32.129Z,15.15
2019-03-20T10:11:15.388Z,15.23
2019-03-20T10:11:57.517Z,15.15
2019-03-20T10:12:36.523Z,15.31
2019-03-20T10:13:17.437Z,15.3
2019-03-20T10:14:01.442Z,15.4
2019-03-20T10:14:41.776Z,15.55
2019-03-20T10:15:24.199Z,15.58
2019-03-20T10:16:03.827Z,15.62
2019-03-20T10:16:45.076Z,15.66
2019-03-20T10:17:25.453Z,15.81
2019-03-20T10:18:06.962Z,15.81
2019-03-20T10:18:47.519Z,15.86
2019-03-20T10:19:27.953Z,15.88
2019-03-20T10:20:08.552Z,15.96
2019-03-20T10:20:49.146Z,16.08
2019-03-20T10:21:32.135Z,16.07
2019-03-20T10:22:12.558Z,16.11
2019-03-20T10:22:52.983Z,16.16
2019-03-20T10:23:33.400Z,16.17
2019-03-20T10:24:13.902Z,16.26
2019-03-20T10:24:54.494Z,16.36
2019-03-20T10:25:44.322Z,16.44
2019-03-20T10:26:20.681Z,16.45
2019-03-20T10:27:00.310Z,16.47
2019-03-20T10:27:40.897Z,16.54
2019-03-20T10:28:21.463Z,16.51
2019-03-20T10:29:03.328Z,16.48
2019-03-20T11:06:41.520Z,18.84
2019-03-20T11:07:23.201Z,18.84
2019-03-20T11:08:04.462Z,18.83
2019-03-20T11:08:44.520Z,18.79
2019-03-20T11:09:27.087Z,18.62
2019-03-20T11:10:07.850Z,18.36
2019-03-20T11:10:49.113Z,18.23
2019-03-20T11:11:29.757Z,18.17
2019-03-20T11:12:10.008Z,18.16
2019-03-20T11:12:50.430Z,18.07
2019-03-20T11:13:30.920Z,18.04
2019-03-20T11:14:12.080Z,18.07
2019-03-20T11:14:52.550Z,18.09
2019-03-20T11:15:32.883Z,17.98
2019-03-20T11:16:13.284Z,18.05
2019-03-20T11:16:55.676Z,18.05